createdAt,value
2018-01-07T00:00:54.510Z,951.49
2018-01-07T00:01:54.507Z,951.46
2018-01-07T00:02:54.525Z,951.48
2018-01-07T00:03:54.589Z,951.51
2018-01-07T00:04:54.560Z,951.5
2018-01-07T00:05:54.577Z,951.51
2018-01-07T00:06:54.591Z,951.51
2018-01-07T00:07:54.607Z,951.54
2018-01-07T00:08:54.621Z,951.55
2018-01-07T00:09:54.638Z,951.56
2018-01-07T00:10:54.658Z,951.56
2018-01-07T00:11:54.673Z,951.61
2018-01-07T00:12:54.687Z,951.62
2018-01-07T00:13:54.707Z,951.61
2018-01-07T00:14:54.724Z,951.57
2018-01-07T00:15:54.739Z,951.58
2018-01-07T00:16:54.756Z,951.61
2018-01-07T00:17:54.771Z,951.61
2018-01-07T00:18:54.835Z,951.64
2018-01-07T00:19:54.802Z,951.64
2018-01-07T00:20:54.821Z,951.67
2018-01-07T00:21:54.837Z,951.71
2018-01-07T00:22:54.858Z,951.72
2018-01-07T00:23:54.865Z,951.7
2018-01-07T00:24:54.870Z,951.74
2018-01-07T00:25:54.900Z,951.71
2018-01-07T00:26:54.916Z,951.73
2018-01-07T00:27:54.931Z,951.74
2018-01-07T00:28:54.949Z,951.73
2018-01-07T00:29:54.952Z,951.75
2018-01-07T00:30:54.980Z,951.73
2018-01-07T00:31:54.996Z,951.71
2018-01-07T00:32:55.001Z,951.76
2018-01-07T00:33:55.079Z,951.74
2018-01-07T00:34:55.044Z,951.74
2018-01-07T00:35:55.062Z,951.8
2018-01-07T00:36:55.077Z,951.8
2018-01-07T00:37:55.081Z,951.81
2018-01-07T00:38:55.108Z,951.83
2018-01-07T00:39:55.115Z,951.89
2018-01-07T00:40:55.142Z,951.89
2018-01-07T00:41:55.145Z,951.92
2018-01-07T00:42:55.173Z,951.91
2018-01-07T00:43:55.178Z,951.94
2018-01-07T00:44:55.195Z,951.96
2018-01-07T00:45:55.209Z,951.91
2018-01-07T00:46:55.238Z,951.95
2018-01-07T00:47:55.255Z,951.96
2018-01-07T00:48:55.309Z,952
2018-01-07T00:49:55.287Z,952.01
2018-01-07T00:50:55.302Z,952
2018-01-07T00:51:55.319Z,951.98
2018-01-07T00:52:55.334Z,951.99
2018-01-07T00:53:55.352Z,951.95
2018-01-07T00:54:55.356Z,951.99
2018-01-07T00:55:55.383Z,952.04
2018-01-07T00:56:55.399Z,952.05
2018-01-07T00:57:55.416Z,952.05
2018-01-07T00:58:55.419Z,952.09
2018-01-07T00:59:55.440Z,952.07
2018-01-07T01:00:55.452Z,952.05
2018-01-07T01:01:55.468Z,952.07
2018-01-07T01:02:55.483Z,952.07
2018-01-07T01:03:55.561Z,952.11
2018-01-07T01:04:55.527Z,952.05
2018-01-07T01:05:55.543Z,952.07
2018-01-07T01:06:55.549Z,952.07
2018-01-07T01:07:55.564Z,952.05
2018-01-07T01:08:55.580Z,952.04
2018-01-07T01:09:55.596Z,952.09
2018-01-07T01:10:55.614Z,952.04
2018-01-07T01:11:55.628Z,952.04
2018-01-07T01:12:55.644Z,952.1
2018-01-07T01:13:55.661Z,952.06
2018-01-07T01:14:55.688Z,952.1
2018-01-07T01:15:55.692Z,952.05
2018-01-07T01:16:55.709Z,952.06
2018-01-07T01:17:55.724Z,952.08
2018-01-07T01:18:55.789Z,952.08
2018-01-07T01:19:55.756Z,952.09
2018-01-07T01:20:55.772Z,952.11
2018-01-07T01:21:55.789Z,952.13
2018-01-07T01:22:55.804Z,952.09
2018-01-07T01:23:55.824Z,952.13
2018-01-07T01:24:55.836Z,952.16
2018-01-07T01:25:55.853Z,952.15
2018-01-07T01:26:55.868Z,952.21
2018-01-07T01:27:55.885Z,952.17
2018-01-07T01:28:55.901Z,952.21
2018-01-07T01:29:55.917Z,952.24
2018-01-07T01:30:55.933Z,952.25
2018-01-07T01:31:55.949Z,952.25
2018-01-07T01:32:55.964Z,952.31
2018-01-07T01:33:56.041Z,952.29
2018-01-07T01:34:55.995Z,952.37
2018-01-07T01:35:56.012Z,952.41
2018-01-07T01:36:56.028Z,952.4
2018-01-07T01:37:56.045Z,952.41
2018-01-07T01:38:56.061Z,952.44
2018-01-07T01:39:56.083Z,952.46
2018-01-07T01:40:56.092Z,952.49
2018-01-07T01:41:56.108Z,952.5
2018-01-07T01:42:56.124Z,952.51
2018-01-07T01:43:56.140Z,952.51
2018-01-07T01:44:56.156Z,952.48
2018-01-07T01:45:56.172Z,952.52
2018-01-07T01:46:56.191Z,952.53
2018-01-07T01:47:56.204Z,952.48
2018-01-07T01:48:56.272Z,952.51
2018-01-07T01:49:56.237Z,952.49
2018-01-07T01:50:56.254Z,952.5
2018-01-07T01:51:56.267Z,952.49
2018-01-07T01:52:56.284Z,952.52
2018-01-07T01:53:56.300Z,952.5
2018-01-07T01:54:56.315Z,952.51
2018-01-07T01:55:56.333Z,952.54
2018-01-07T01:56:56.349Z,952.55
2018-01-07T01:57:56.365Z,952.57
2018-01-07T01:58:56.379Z,952.58
2018-01-07T01:59:56.396Z,952.57
2018-01-07T02:00:56.413Z,952.58
2018-01-07T02:01:56.433Z,952.62
2018-01-07T02:02:56.444Z,952.64
2018-01-07T02:03:56.510Z,952.63
2018-01-07T02:04:56.477Z,952.65
2018-01-07T02:05:56.491Z,952.68
2018-01-07T02:06:56.506Z,952.74
2018-01-07T02:07:56.523Z,952.72
2018-01-07T02:08:56.539Z,952.78
2018-01-07T02:09:56.555Z,952.81
2018-01-07T02:10:56.571Z,952.75
2018-01-07T02:11:56.586Z,952.76
2018-01-07T02:12:56.604Z,952.79
2018-01-07T02:13:56.617Z,952.82
2018-01-07T02:14:56.635Z,952.81
2018-01-07T02:15:56.650Z,952.86
2018-01-07T02:16:56.665Z,952.88
2018-01-07T02:17:56.681Z,952.89
2018-01-07T02:18:56.747Z,952.91
2018-01-07T02:19:56.713Z,952.9
2018-01-07T02:20:56.728Z,952.95
2018-01-07T02:21:56.744Z,952.96
2018-01-07T02:22:56.760Z,952.98
2018-01-07T02:23:56.775Z,952.91
2018-01-07T02:24:56.790Z,952.9
2018-01-07T02:25:56.807Z,952.89
2018-01-07T02:26:56.822Z,952.86
2018-01-07T02:27:56.840Z,952.85
2018-01-07T02:28:56.854Z,952.87
2018-01-07T02:29:56.869Z,952.89
2018-01-07T02:30:56.884Z,952.9
2018-01-07T02:31:56.899Z,952.9
2018-01-07T02:32:56.918Z,952.88
2018-01-07T02:33:56.993Z,952.92
2018-01-07T02:34:56.956Z,952.89
2018-01-07T02:35:56.964Z,952.89
2018-01-07T02:36:56.979Z,952.91
2018-01-07T02:37:56.994Z,952.93
2018-01-07T02:38:57.008Z,952.88
2018-01-07T02:39:57.023Z,952.88
2018-01-07T02:40:57.039Z,952.91
2018-01-07T02:41:57.055Z,952.88
2018-01-07T02:42:57.071Z,952.87
2018-01-07T02:43:57.086Z,952.89
2018-01-07T02:44:57.102Z,952.89
2018-01-07T02:45:57.119Z,952.87
2018-01-07T02:46:57.184Z,952.84
2018-01-07T02:47:57.152Z,952.84
2018-01-07T02:48:57.165Z,952.85
2018-01-07T02:49:57.241Z,952.86
2018-01-07T02:50:57.197Z,952.88
2018-01-07T02:51:57.214Z,952.9
2018-01-07T02:52:57.229Z,952.9
2018-01-07T02:53:57.242Z,952.95
2018-01-07T02:54:57.272Z,952.95
2018-01-07T02:55:57.276Z,952.98
2018-01-07T02:56:57.306Z,952.94
2018-01-07T02:57:57.306Z,952.94
2018-01-07T02:58:57.322Z,952.93
2018-01-07T02:59:57.338Z,952.94
2018-01-07T03:00:57.352Z,952.92
2018-01-07T03:01:57.369Z,952.9
2018-01-07T03:02:57.385Z,952.95
2018-01-07T03:03:57.401Z,952.9
2018-01-07T03:04:57.467Z,952.92
2018-01-07T03:05:57.435Z,952.92
2018-01-07T03:06:57.453Z,953
2018-01-07T03:07:57.469Z,952.98
2018-01-07T03:08:57.483Z,952.95
2018-01-07T03:09:57.495Z,952.95
2018-01-07T03:10:57.513Z,952.99
2018-01-07T03:11:57.525Z,953
2018-01-07T03:12:57.582Z,952.97
2018-01-07T03:13:57.557Z,952.97
2018-01-07T03:14:57.573Z,952.95
2018-01-07T03:15:57.588Z,952.93
2018-01-07T03:16:57.605Z,952.94
2018-01-07T03:17:57.621Z,952.89
2018-01-07T03:18:57.659Z,952.9
2018-01-07T03:19:57.705Z,952.9
2018-01-07T03:20:57.667Z,952.9
2018-01-07T03:21:57.683Z,952.91
2018-01-07T03:22:57.699Z,952.89
2018-01-07T03:23:57.715Z,952.93
2018-01-07T03:24:57.731Z,952.91
2018-01-07T03:25:57.747Z,952.9
2018-01-07T03:26:57.770Z,952.93
2018-01-07T03:27:57.779Z,952.97
2018-01-07T03:28:57.793Z,952.95
2018-01-07T03:29:57.807Z,952.93
2018-01-07T03:30:57.824Z,952.99
2018-01-07T03:31:57.838Z,952.99
2018-01-07T03:32:57.856Z,952.98
2018-01-07T03:33:57.870Z,952.97
2018-01-07T03:34:57.886Z,952.98
2018-01-07T03:35:57.950Z,952.95
2018-01-07T03:36:57.917Z,952.98
2018-01-07T03:37:57.932Z,952.95
2018-01-07T03:38:57.947Z,952.94
2018-01-07T03:39:57.963Z,952.92
2018-01-07T03:40:57.978Z,952.93
2018-01-07T03:41:57.992Z,952.92
2018-01-07T03:42:58.009Z,952.92
2018-01-07T03:43:58.025Z,952.95
2018-01-07T03:44:58.040Z,952.94
2018-01-07T03:45:58.056Z,952.92
2018-01-07T03:46:58.072Z,952.92
2018-01-07T03:47:58.093Z,952.95
2018-01-07T03:48:58.103Z,952.91
2018-01-07T03:49:58.119Z,952.89
2018-01-07T03:50:58.184Z,952.91
2018-01-07T03:51:58.148Z,952.92
2018-01-07T03:52:58.164Z,952.91
2018-01-07T03:53:58.180Z,952.9
2018-01-07T03:54:58.196Z,952.91
2018-01-07T03:55:58.210Z,952.95
2018-01-07T03:56:58.227Z,952.93
2018-01-07T03:57:58.243Z,952.98
2018-01-07T03:58:58.258Z,952.97
2018-01-07T03:59:58.273Z,952.96
2018-01-07T04:00:58.288Z,952.91
2018-01-07T04:01:58.305Z,952.92
2018-01-07T04:02:58.318Z,952.91
2018-01-07T04:03:58.335Z,952.94
2018-01-07T04:04:58.351Z,952.93
2018-01-07T04:05:58.517Z,952.9
2018-01-07T04:06:58.381Z,952.91
2018-01-07T04:07:58.397Z,952.91
2018-01-07T04:08:58.412Z,952.92
2018-01-07T04:09:58.429Z,952.88
2018-01-07T04:10:58.442Z,952.89
2018-01-07T04:11:58.466Z,952.87
2018-01-07T04:12:58.474Z,952.88
2018-01-07T04:13:58.489Z,952.87
2018-01-07T04:14:58.505Z,952.91
2018-01-07T04:15:58.520Z,952.9
2018-01-07T04:16:58.536Z,952.9
2018-01-07T04:17:58.554Z,952.91
2018-01-07T04:18:58.565Z,952.88
2018-01-07T04:19:58.581Z,952.95
2018-01-07T04:20:58.747Z,953.01
2018-01-07T04:21:58.618Z,953.02
2018-01-07T04:22:58.628Z,953.04
2018-01-07T04:23:58.642Z,953.07
2018-01-07T04:24:58.658Z,953.08
2018-01-07T04:25:58.673Z,953.14
2018-01-07T04:26:58.689Z,953.15
2018-01-07T04:27:58.703Z,953.21
2018-01-07T04:28:58.717Z,953.25
2018-01-07T04:29:58.734Z,953.21
2018-01-07T04:30:58.749Z,953.21
2018-01-07T04:31:58.785Z,953.21
2018-01-07T04:32:58.779Z,953.29
2018-01-07T04:33:58.795Z,953.3
2018-01-07T04:34:58.809Z,953.32
2018-01-07T04:35:58.874Z,953.34
2018-01-07T04:36:58.840Z,953.31
2018-01-07T04:37:58.855Z,953.37
2018-01-07T04:38:58.870Z,953.37
2018-01-07T04:39:58.884Z,953.36
2018-01-07T04:40:58.900Z,953.4
2018-01-07T04:41:58.915Z,953.43
2018-01-07T04:42:58.931Z,953.47
2018-01-07T04:43:58.944Z,953.45
2018-01-07T04:44:58.964Z,953.49
2018-01-07T04:45:58.976Z,953.49
2018-01-07T04:46:58.991Z,953.52
2018-01-07T04:47:59.006Z,953.53
2018-01-07T04:48:59.021Z,953.53
2018-01-07T04:49:59.037Z,953.55
2018-01-07T04:50:59.101Z,953.56
2018-01-07T04:51:59.069Z,953.57
2018-01-07T04:52:59.080Z,953.58
2018-01-07T04:53:59.096Z,953.54
2018-01-07T04:54:59.111Z,953.55
2018-01-07T04:55:59.126Z,953.6
2018-01-07T04:56:59.141Z,953.64
2018-01-07T04:57:59.156Z,953.67
2018-01-07T04:58:59.171Z,953.67
2018-01-07T04:59:59.187Z,953.69
2018-01-07T05:00:59.203Z,953.67
2018-01-07T05:01:59.216Z,953.65
2018-01-07T05:02:59.232Z,953.68
2018-01-07T05:03:59.251Z,953.65
2018-01-07T05:04:59.262Z,953.63
2018-01-07T05:05:59.326Z,953.69
2018-01-07T05:06:59.291Z,953.67
2018-01-07T05:07:59.305Z,953.65
2018-01-07T05:08:59.321Z,953.62
2018-01-07T05:09:59.335Z,953.66
2018-01-07T05:10:59.349Z,953.64
2018-01-07T05:11:59.365Z,953.64
2018-01-07T05:12:59.379Z,953.64
2018-01-07T05:13:59.393Z,953.66
2018-01-07T05:14:59.409Z,953.62
2018-01-07T05:15:59.424Z,953.65
2018-01-07T05:16:59.438Z,953.62
2018-01-07T05:17:59.453Z,953.62
2018-01-07T05:18:59.468Z,953.6
2018-01-07T05:19:59.482Z,953.62
2018-01-07T05:20:59.549Z,953.59
2018-01-07T05:21:59.512Z,953.64
2018-01-07T05:22:59.529Z,953.7
2018-01-07T05:23:59.540Z,953.72
2018-01-07T05:24:59.555Z,953.7
2018-01-07T05:25:59.571Z,953.66
2018-01-07T05:26:59.584Z,953.72
2018-01-07T05:27:59.600Z,953.75
2018-01-07T05:28:59.614Z,953.72
2018-01-07T05:29:59.634Z,953.77
2018-01-07T05:30:59.744Z,953.72
2018-01-07T05:31:59.658Z,953.7
2018-01-07T05:32:59.673Z,953.72
2018-01-07T05:33:59.688Z,953.7
2018-01-07T05:34:59.703Z,953.73
2018-01-07T05:35:59.767Z,953.7
2018-01-07T05:36:59.731Z,953.74
2018-01-07T05:37:59.745Z,953.76
2018-01-07T05:38:59.760Z,953.81
2018-01-07T05:39:59.773Z,953.83
2018-01-07T05:40:59.789Z,953.89
2018-01-07T05:41:59.802Z,953.92
2018-01-07T05:42:59.819Z,953.9
2018-01-07T05:43:59.832Z,953.92
2018-01-07T05:44:59.846Z,953.95
2018-01-07T05:45:59.860Z,953.93
2018-01-07T05:46:59.874Z,953.89
2018-01-07T05:47:59.889Z,953.88
2018-01-07T05:48:59.905Z,953.94
2018-01-07T05:49:59.917Z,953.97
2018-01-07T05:50:59.982Z,954.01
2018-01-07T05:51:59.946Z,954.06
2018-01-07T05:52:59.958Z,954.06
2018-01-07T05:53:59.973Z,954.1
2018-01-07T05:54:59.989Z,954.15
2018-01-07T05:56:00.005Z,954.14
2018-01-07T05:57:00.018Z,954.19
2018-01-07T05:58:00.034Z,954.23
2018-01-07T05:59:00.052Z,954.27
2018-01-07T06:00:00.063Z,954.24
2018-01-07T06:01:00.095Z,954.24
2018-01-07T06:02:00.089Z,954.27
2018-01-07T06:03:00.103Z,954.27
2018-01-07T06:04:00.119Z,954.3
2018-01-07T06:05:00.133Z,954.32
2018-01-07T06:06:00.196Z,954.31
2018-01-07T06:07:00.160Z,954.34
2018-01-07T06:08:00.173Z,954.4
2018-01-07T06:09:00.190Z,954.43
2018-01-07T06:10:00.203Z,954.45
2018-01-07T06:11:00.216Z,954.54
2018-01-07T06:12:00.231Z,954.58
2018-01-07T06:13:00.250Z,954.58
2018-01-07T06:14:00.260Z,954.61
2018-01-07T06:15:00.274Z,954.63
2018-01-07T06:16:00.288Z,954.63
2018-01-07T06:17:00.303Z,954.63
2018-01-07T06:18:00.319Z,954.66
2018-01-07T06:19:00.332Z,954.7
2018-01-07T06:20:00.347Z,954.69
2018-01-07T06:21:00.412Z,954.72
2018-01-07T06:22:00.374Z,954.76
2018-01-07T06:23:00.389Z,954.78
2018-01-07T06:24:00.403Z,954.79
2018-01-07T06:25:00.418Z,954.82
2018-01-07T06:26:00.432Z,954.79
2018-01-07T06:27:00.447Z,954.83
2018-01-07T06:28:00.461Z,954.8
2018-01-07T06:29:00.477Z,954.82
2018-01-07T06:30:00.491Z,954.8
2018-01-07T06:31:00.505Z,954.74
2018-01-07T06:32:00.520Z,954.74
2018-01-07T06:33:00.533Z,954.74
2018-01-07T06:34:00.550Z,954.79
2018-01-07T06:35:00.563Z,954.78
2018-01-07T06:36:00.627Z,954.78
2018-01-07T06:37:00.591Z,954.8
2018-01-07T06:38:00.607Z,954.78
2018-01-07T06:39:00.623Z,954.79
2018-01-07T06:40:00.635Z,954.78
2018-01-07T06:41:00.648Z,954.78
2018-01-07T06:42:00.662Z,954.77
2018-01-07T06:43:00.678Z,954.8
2018-01-07T06:44:00.692Z,954.77
2018-01-07T06:45:00.704Z,954.81
2018-01-07T06:46:00.820Z,954.84
2018-01-07T06:47:00.735Z,954.8
2018-01-07T06:48:00.748Z,954.76
2018-01-07T06:49:00.763Z,954.81
2018-01-07T06:50:00.778Z,954.89
2018-01-07T06:51:00.842Z,954.93
2018-01-07T06:52:00.807Z,954.94
2018-01-07T06:53:00.823Z,954.96
2018-01-07T06:54:00.835Z,954.95
2018-01-07T06:55:00.849Z,954.91
2018-01-07T06:56:00.863Z,954.88
2018-01-07T06:57:00.879Z,954.93
2018-01-07T06:58:00.892Z,954.91
2018-01-07T06:59:00.906Z,955
2018-01-07T07:00:00.923Z,954.98
2018-01-07T07:01:00.935Z,955
2018-01-07T07:02:00.948Z,955.03
2018-01-07T07:03:00.966Z,955.03
2018-01-07T07:04:00.977Z,955.11
2018-01-07T07:05:00.993Z,955.06
2018-01-07T07:06:01.056Z,955.08
2018-01-07T07:07:01.020Z,955.14
2018-01-07T07:08:01.036Z,955.13
2018-01-07T07:09:01.050Z,955.21
2018-01-07T07:10:01.065Z,955.22
2018-01-07T07:11:01.080Z,955.21
2018-01-07T07:12:01.094Z,955.24
2018-01-07T07:13:01.107Z,955.24
2018-01-07T07:14:01.121Z,955.22
2018-01-07T07:15:01.137Z,955.21
2018-01-07T07:16:01.150Z,955.22
2018-01-07T07:17:01.164Z,955.18
2018-01-07T07:18:01.182Z,955.19
2018-01-07T07:19:01.195Z,955.21
2018-01-07T07:20:01.209Z,955.16
2018-01-07T07:21:01.272Z,955.18
2018-01-07T07:22:01.237Z,955.19
2018-01-07T07:23:01.251Z,955.19
2018-01-07T07:24:01.268Z,955.22
2018-01-07T07:25:01.279Z,955.25
2018-01-07T07:26:01.294Z,955.27
2018-01-07T07:27:01.309Z,955.28
2018-01-07T07:28:01.323Z,955.27
2018-01-07T07:29:01.337Z,955.3
2018-01-07T07:30:01.350Z,955.33
2018-01-07T07:31:01.365Z,955.37
2018-01-07T07:32:01.379Z,955.41
2018-01-07T07:33:01.394Z,955.49
2018-01-07T07:34:01.407Z,955.5
2018-01-07T07:35:01.421Z,955.58
2018-01-07T07:36:01.486Z,955.61
2018-01-07T07:37:01.452Z,955.65
2018-01-07T07:38:01.466Z,955.67
2018-01-07T07:39:01.478Z,955.63
2018-01-07T07:40:01.493Z,955.71
2018-01-07T07:41:01.506Z,955.71
2018-01-07T07:42:01.522Z,955.73
2018-01-07T07:43:01.540Z,955.82
2018-01-07T07:44:01.552Z,955.85
2018-01-07T07:45:01.565Z,955.88
2018-01-07T07:46:01.579Z,955.84
2018-01-07T07:47:01.592Z,955.84
2018-01-07T07:48:01.610Z,955.91
2018-01-07T07:49:01.622Z,955.88
2018-01-07T07:50:01.636Z,955.86
2018-01-07T07:51:01.701Z,955.84
2018-01-07T07:52:01.665Z,955.86
2018-01-07T07:53:01.680Z,955.89
2018-01-07T07:54:01.693Z,955.88
2018-01-07T07:55:01.711Z,955.91
2018-01-07T07:56:01.724Z,955.9
2018-01-07T07:57:01.736Z,955.94
2018-01-07T07:58:01.754Z,955.95
2018-01-07T07:59:01.766Z,955.94
2018-01-07T08:00:01.816Z,955.94
2018-01-07T08:01:01.793Z,955.97
2018-01-07T08:02:01.808Z,955.95
2018-01-07T08:03:01.824Z,955.96
2018-01-07T08:04:01.837Z,955.98
2018-01-07T08:05:01.852Z,955.93
2018-01-07T08:06:02.017Z,955.97
2018-01-07T08:07:01.880Z,955.96
2018-01-07T08:08:01.893Z,955.98
2018-01-07T08:09:01.908Z,955.96
2018-01-07T08:10:01.923Z,955.99
2018-01-07T08:11:01.940Z,955.99
2018-01-07T08:12:01.953Z,956.07
2018-01-07T08:13:01.966Z,956.05
2018-01-07T08:14:01.982Z,956.08
2018-01-07T08:15:01.993Z,956.1
2018-01-07T08:16:02.008Z,956.13
2018-01-07T08:17:02.025Z,956.19
2018-01-07T08:18:02.039Z,956.21
2018-01-07T08:19:02.054Z,956.18
2018-01-07T08:20:02.069Z,956.19
2018-01-07T08:21:02.133Z,956.2
2018-01-07T08:22:02.098Z,956.19
2018-01-07T08:23:02.125Z,956.23
2018-01-07T08:24:02.132Z,956.21
2018-01-07T08:25:02.145Z,956.24
2018-01-07T08:26:02.156Z,956.25
2018-01-07T08:27:02.169Z,956.28
2018-01-07T08:28:02.186Z,956.28
2018-01-07T08:29:02.200Z,956.26
2018-01-07T08:30:02.214Z,956.28
2018-01-07T08:31:02.227Z,956.3
2018-01-07T08:32:02.244Z,956.3
2018-01-07T08:33:02.258Z,956.34
2018-01-07T08:34:02.272Z,956.31
2018-01-07T08:35:02.287Z,956.35
2018-01-07T08:36:02.352Z,956.29
2018-01-07T08:37:02.316Z,956.33
2018-01-07T08:38:02.330Z,956.28
2018-01-07T08:39:02.346Z,956.32
2018-01-07T08:40:02.361Z,956.33
2018-01-07T08:41:02.375Z,956.33
2018-01-07T08:42:02.389Z,956.33
2018-01-07T08:43:02.408Z,956.34
2018-01-07T08:44:02.421Z,956.35
2018-01-07T08:45:02.436Z,956.42
2018-01-07T08:46:02.448Z,956.44
2018-01-07T08:47:02.464Z,956.45
2018-01-07T08:48:02.478Z,956.43
2018-01-07T08:49:02.496Z,956.46
2018-01-07T08:50:02.511Z,956.46
2018-01-07T08:51:02.573Z,956.46
2018-01-07T08:52:02.537Z,956.45
2018-01-07T08:53:02.560Z,956.44
2018-01-07T08:54:02.567Z,956.45
2018-01-07T08:55:02.580Z,956.46
2018-01-07T08:56:02.596Z,956.49
2018-01-07T08:57:02.612Z,956.55
2018-01-07T08:58:02.623Z,956.64
2018-01-07T08:59:02.640Z,956.64
2018-01-07T09:00:02.657Z,956.7
2018-01-07T09:01:02.731Z,956.72
2018-01-07T09:02:02.685Z,956.76
2018-01-07T09:03:02.700Z,956.78
2018-01-07T09:04:02.716Z,956.86
2018-01-07T09:05:02.731Z,956.86
2018-01-07T09:06:02.797Z,956.83
2018-01-07T09:07:02.761Z,956.89
2018-01-07T09:08:02.776Z,956.89
2018-01-07T09:09:02.792Z,956.92
2018-01-07T09:10:02.805Z,956.89
2018-01-07T09:11:02.821Z,956.87
2018-01-07T09:12:02.837Z,956.91
2018-01-07T09:13:02.851Z,956.88
2018-01-07T09:14:02.865Z,956.88
2018-01-07T09:15:02.903Z,956.88
2018-01-07T09:16:02.896Z,956.89
2018-01-07T09:17:02.910Z,956.86
2018-01-07T09:18:02.926Z,956.82
2018-01-07T09:19:02.942Z,956.85
2018-01-07T09:20:02.957Z,956.8
2018-01-07T09:21:03.023Z,956.9
2018-01-07T09:22:02.987Z,956.87
2018-01-07T09:23:03.002Z,956.87
2018-01-07T09:24:03.016Z,956.86
2018-01-07T09:25:03.032Z,956.88
2018-01-07T09:26:03.050Z,956.91
2018-01-07T09:27:03.061Z,956.93
2018-01-07T09:28:03.078Z,956.96
2018-01-07T09:29:03.092Z,957.03
2018-01-07T09:30:03.106Z,957.01
2018-01-07T09:31:03.132Z,957.03
2018-01-07T09:32:03.136Z,957.08
2018-01-07T09:33:03.152Z,957.09
2018-01-07T09:34:03.168Z,957.13
2018-01-07T09:35:03.182Z,957.15
2018-01-07T09:36:03.247Z,957.16
2018-01-07T09:37:03.212Z,957.17
2018-01-07T09:38:03.229Z,957.1
2018-01-07T09:39:03.243Z,957.16
2018-01-07T09:40:03.259Z,957.13
2018-01-07T09:41:03.274Z,957.15
2018-01-07T09:42:03.290Z,957.16
2018-01-07T09:43:03.304Z,957.2
2018-01-07T09:44:03.320Z,957.22
2018-01-07T09:45:03.335Z,957.25
2018-01-07T09:46:03.350Z,957.3
2018-01-07T09:47:03.364Z,957.28
2018-01-07T09:48:03.379Z,957.28
2018-01-07T09:49:03.395Z,957.31
2018-01-07T09:50:03.419Z,957.36
2018-01-07T09:51:03.473Z,957.36
2018-01-07T09:52:03.439Z,957.3
2018-01-07T09:53:03.453Z,957.33
2018-01-07T09:54:03.469Z,957.3
2018-01-07T09:55:03.483Z,957.32
2018-01-07T09:56:03.500Z,957.37
2018-01-07T09:57:03.515Z,957.43
2018-01-07T09:58:03.529Z,957.45
2018-01-07T09:59:03.543Z,957.44
2018-01-07T10:00:03.560Z,957.42
2018-01-07T10:01:03.574Z,957.41
2018-01-07T10:02:03.588Z,957.38
2018-01-07T10:03:03.604Z,957.35
2018-01-07T10:04:03.617Z,957.35
2018-01-07T10:05:03.632Z,957.37
2018-01-07T10:06:03.698Z,957.34
2018-01-07T10:07:03.663Z,957.32
2018-01-07T10:08:03.679Z,957.37
2018-01-07T10:09:03.693Z,957.35
2018-01-07T10:10:03.707Z,957.41
2018-01-07T10:11:03.722Z,957.42
2018-01-07T10:12:03.737Z,957.45
2018-01-07T10:13:03.754Z,957.42
2018-01-07T10:14:03.770Z,957.42
2018-01-07T10:15:03.784Z,957.44
2018-01-07T10:16:03.800Z,957.46
2018-01-07T10:17:03.814Z,957.41
2018-01-07T10:18:03.830Z,957.44
2018-01-07T10:19:03.846Z,957.4
2018-01-07T10:20:03.860Z,957.35
2018-01-07T10:21:03.926Z,957.32
2018-01-07T10:22:03.890Z,957.31
2018-01-07T10:23:03.905Z,957.3
2018-01-07T10:24:03.920Z,957.27
2018-01-07T10:25:03.936Z,957.36
2018-01-07T10:26:03.950Z,957.32
2018-01-07T10:27:03.965Z,957.34
2018-01-07T10:28:03.980Z,957.35
2018-01-07T10:29:03.995Z,957.33
2018-01-07T10:30:04.016Z,957.29
2018-01-07T10:31:04.125Z,957.31
2018-01-07T10:32:04.039Z,957.26
2018-01-07T10:33:04.056Z,957.25
2018-01-07T10:34:04.073Z,957.24
2018-01-07T10:35:04.093Z,957.23
2018-01-07T10:36:04.150Z,957.32
2018-01-07T10:37:04.116Z,957.32
2018-01-07T10:38:04.129Z,957.31
2018-01-07T10:39:04.152Z,957.3
2018-01-07T10:40:04.161Z,957.3
2018-01-07T10:41:04.176Z,957.29
2018-01-07T10:42:04.193Z,957.3
2018-01-07T10:43:04.206Z,957.32
2018-01-07T10:44:04.221Z,957.25
2018-01-07T10:45:04.236Z,957.24
2018-01-07T10:46:04.250Z,957.25
2018-01-07T10:47:04.265Z,957.24
2018-01-07T10:48:04.282Z,957.19
2018-01-07T10:49:04.296Z,957.22
2018-01-07T10:50:04.311Z,957.22
2018-01-07T10:51:04.377Z,957.24
2018-01-07T10:52:04.343Z,957.2
2018-01-07T10:53:04.357Z,957.24
2018-01-07T10:54:04.372Z,957.29
2018-01-07T10:55:04.388Z,957.34
2018-01-07T10:56:04.402Z,957.36
2018-01-07T10:57:04.436Z,957.36
2018-01-07T10:58:04.432Z,957.39
2018-01-07T10:59:04.447Z,957.37
2018-01-07T11:00:04.464Z,957.44
2018-01-07T11:01:04.475Z,957.39
2018-01-07T11:02:04.494Z,957.44
2018-01-07T11:03:04.508Z,957.41
2018-01-07T11:04:04.526Z,957.42
2018-01-07T11:05:04.538Z,957.49
2018-01-07T11:06:04.553Z,957.46
2018-01-07T11:07:04.567Z,957.43
2018-01-07T11:08:04.633Z,957.41
2018-01-07T11:09:04.597Z,957.42
2018-01-07T11:10:04.614Z,957.38
2018-01-07T11:11:04.628Z,957.33
2018-01-07T11:12:04.644Z,957.3
2018-01-07T11:13:04.758Z,957.19
2018-01-07T11:14:04.675Z,957.22
2018-01-07T11:15:04.689Z,957.26
2018-01-07T11:16:04.706Z,957.27
2018-01-07T11:17:04.723Z,957.27
2018-01-07T11:18:04.737Z,957.31
2018-01-07T11:19:04.752Z,957.26
2018-01-07T11:20:04.767Z,957.24
2018-01-07T11:21:04.783Z,957.21
2018-01-07T11:22:04.797Z,957.21
2018-01-07T11:23:04.863Z,957.23
2018-01-07T11:24:04.835Z,957.27
2018-01-07T11:25:04.843Z,957.33
2018-01-07T11:26:04.857Z,957.43
2018-01-07T11:27:04.872Z,957.42
2018-01-07T11:28:04.888Z,957.47
2018-01-07T11:29:04.904Z,957.45
2018-01-07T11:30:04.918Z,957.46
2018-01-07T11:31:04.937Z,957.47
2018-01-07T11:32:04.949Z,957.49
2018-01-07T11:33:04.962Z,957.51
2018-01-07T11:34:04.977Z,957.44
2018-01-07T11:35:04.993Z,957.48
2018-01-07T11:36:05.058Z,957.46
2018-01-07T11:37:05.026Z,957.47
2018-01-07T11:38:05.089Z,957.45
2018-01-07T11:39:05.055Z,957.44
2018-01-07T11:40:05.070Z,957.41
2018-01-07T11:41:05.083Z,957.36
2018-01-07T11:42:05.100Z,957.41
2018-01-07T11:43:05.115Z,957.36
2018-01-07T11:44:05.129Z,957.42
2018-01-07T11:45:05.147Z,957.37
2018-01-07T11:46:05.161Z,957.36
2018-01-07T11:47:05.175Z,957.48
2018-01-07T11:48:05.206Z,957.49
2018-01-07T11:49:05.205Z,957.51
2018-01-07T11:50:05.220Z,957.54
2018-01-07T11:51:05.235Z,957.49
2018-01-07T11:52:05.250Z,957.48
2018-01-07T11:53:05.316Z,957.46
2018-01-07T11:54:05.292Z,957.56
2018-01-07T11:55:05.295Z,957.54
2018-01-07T11:56:05.311Z,957.59
2018-01-07T11:57:05.338Z,957.53
2018-01-07T11:58:05.345Z,957.53
2018-01-07T11:59:05.356Z,957.51
2018-01-07T12:00:05.370Z,957.47
2018-01-07T12:01:05.388Z,957.49
2018-01-07T12:02:05.400Z,957.49
2018-01-07T12:03:05.415Z,957.45
2018-01-07T12:04:05.433Z,957.39
2018-01-07T12:05:05.460Z,957.39
2018-01-07T12:06:05.461Z,957.4
2018-01-07T12:07:05.476Z,957.35
2018-01-07T12:08:05.543Z,957.46
2018-01-07T12:09:05.508Z,957.46
2018-01-07T12:10:05.524Z,957.43
2018-01-07T12:11:05.539Z,957.4
2018-01-07T12:12:05.554Z,957.38
2018-01-07T12:13:05.570Z,957.34
2018-01-07T12:14:05.599Z,957.37
2018-01-07T12:15:05.612Z,957.31
2018-01-07T12:16:05.615Z,957.37
2018-01-07T12:17:05.639Z,957.37
2018-01-07T12:18:05.645Z,957.38
2018-01-07T12:19:05.660Z,957.3
2018-01-07T12:20:05.675Z,957.32
2018-01-07T12:21:05.702Z,957.29
2018-01-07T12:22:05.706Z,957.23
2018-01-07T12:23:05.721Z,957.26
2018-01-07T12:24:05.797Z,957.19
2018-01-07T12:25:05.751Z,957.2
2018-01-07T12:26:05.767Z,957.23
2018-01-07T12:27:05.782Z,957.22
2018-01-07T12:28:05.796Z,957.22
2018-01-07T12:29:05.812Z,957.22
2018-01-07T12:30:05.827Z,957.24
2018-01-07T12:31:05.841Z,957.21
2018-01-07T12:32:05.855Z,957.2